Terminal Aerodrome Forecast
Issued by NWS

Home | Current Version | Previous Version | Text Only | Print | Product List | Glossary On
Versions: 1 2 3 4 5 6 7 8 9 10 11 12 13 14 15 16
000
FTUS45 KABQ 041139
TAFTCC
TAF
KTCC 041139Z 0412/0512 24010KT P6SM SCT100 BKN150
     FM041800 22014G24KT P6SM BKN100
     FM050100 21010KT P6SM BKN100=

USA.gov is the U.S. government's official web portal to all federal, state and local government web resources and services.